Welcome to Northern Hawkes Bay. New Zealand.
PWS Header
      nz Flag



Hit Counter


W3C Valid W3C Valid logo


    Wairoa

Select any of the Stations below to visit their websites.










Historic Data from Weather Underground
Select the location of interest below. Wairoa is the default. Please have patience, this Data is slow to load in.
Northern Hawkes Bay Historical Data
Daily Summary for July 26, 2017 Units:  Metric    English   Both
« Previous Day
Next Day »
Daily Weekly Monthly Yearly Custom
  High: Low: Average:
Temperature: 18.6 °C 3.8 °C 9.5 °C
Dew Point: 6.7 °C 3.7 °C 5.4 °C
Humidity: 99% 40% 79%
Wind Speed: 13.4km/h 0.0km/h 5km/h
Wind Gust: 17.2km/h - -
Wind- - WSW
Pressure: 1009.7 hPa 1006.7 hPa -
Precipitation: 0.0 mm    
Historical Graphs
 
 
Tabular Data for July 26, 2017
Time Temperature Dew Point Pressure Wind Wind Speed Wind Gust Humidity Rainfall Rate (Hourly) solar
00:03 7.4 °C 6.7 °C 1006.7 hPa NNW 6.1 km/h 9.7 km/h 95% 0.0 mm 0 W/m2
00:08 7.4 °C 6.7 °C 1006.7 hPa NW 6.1 km/h 11.1 km/h 95% 0.0 mm 0 W/m2
00:13 7.4 °C 6.7 °C 1006.7 hPa NW 5.0 km/h 11.1 km/h 95% 0.0 mm 0 W/m2
00:18 7.3 °C 6.6 °C 1006.7 hPa NW 6.1 km/h 9.7 km/h 95% 0.0 mm 0 W/m2
00:23 7.2 °C 6.3 °C 1006.7 hPa NW 3.5 km/h 9.7 km/h 94% 0.0 mm 0 W/m2
00:28 7.1 °C 6.2 °C 1006.7 hPa NW 3.5 km/h 8.7 km/h 94% 0.0 mm 0 W/m2
00:33 7.1 °C 6.3 °C 1006.7 hPa NW 6.1 km/h 8.7 km/h 95% 0.0 mm 0 W/m2
00:38 7.1 °C 6.3 °C 1006.7 hPa NW 5.0 km/h 9.7 km/h 95% 0.0 mm 0 W/m2
00:43 7.1 °C 6.3 °C 1006.7 hPa NW 5.0 km/h 9.7 km/h 95% 0.0 mm 0 W/m2
00:48 7.0 °C 6.3 °C 1006.7 hPa NW 5.0 km/h 9.7 km/h 95% 0.0 mm 0 W/m2
00:53 6.9 °C 6.3 °C 1006.7 hPa NW 5.0 km/h 8.7 km/h 96% 0.0 mm 0 W/m2
00:58 6.8 °C 6.2 °C 1006.7 hPa NW 5.0 km/h 7.2 km/h 96% 0.0 mm 0 W/m2
01:03 6.8 °C 6.2 °C 1006.7 hPa NW 3.5 km/h 7.2 km/h 96% 0.0 mm 0 W/m2
01:08 6.7 °C 6.1 °C 1006.7 hPa NW 3.5 km/h 7.2 km/h 96% 0.0 mm 0 W/m2
01:13 6.6 °C 6.0 °C 1006.7 hPa NNW 2.6 km/h 6.1 km/h 96% 0.0 mm 0 W/m2
01:18 6.6 °C 6.0 °C 1006.7 hPa NNW 2.6 km/h 6.1 km/h 96% 0.0 mm 0 W/m2
01:23 6.6 °C 6.0 °C 1006.7 hPa NW 5.0 km/h 6.1 km/h 96% 0.0 mm 0 W/m2
01:28 6.6 °C 6.0 °C 1006.7 hPa NW 7.2 km/h 9.7 km/h 96% 0.0 mm 0 W/m2
01:33 6.6 °C 6.0 °C 1006.7 hPa NW 6.1 km/h 9.7 km/h 96% 0.0 mm 0 W/m2
01:38 6.5 °C 5.9 °C 1006.7 hPa NW 5.0 km/h 9.7 km/h 96% 0.0 mm 0 W/m2
01:43 6.5 °C 6.1 °C 1007.0 hPa NW 6.1 km/h 8.7 km/h 97% 0.0 mm 0 W/m2
02:01 6.4 °C 5.9 °C 1006.7 hPa NNW 6.1 km/h 8.7 km/h 97% 0.0 mm 0 W/m2
02:06 6.4 °C 5.9 °C 1007.0 hPa NW 5.0 km/h 8.7 km/h 97% 0.0 mm 0 W/m2
02:11 6.4 °C 5.9 °C 1007.0 hPa NW 3.5 km/h 8.7 km/h 97% 0.0 mm 0 W/m2
02:16 6.3 °C 5.8 °C 1007.0 hPa NW 5.0 km/h 7.2 km/h 97% 0.0 mm 0 W/m2
02:21 6.3 °C 5.8 °C 1007.0 hPa NW 3.5 km/h 7.2 km/h 97% 0.0 mm 0 W/m2
02:26 6.2 °C 5.8 °C 1007.3 hPa NW 3.5 km/h 7.2 km/h 97% 0.0 mm 0 W/m2
02:31 6.1 °C 5.7 °C 1007.0 hPa NW 5.0 km/h 7.2 km/h 97% 0.0 mm 0 W/m2
02:36 6.0 °C 5.6 °C 1007.0 hPa NNW 5.0 km/h 7.2 km/h 97% 0.0 mm 0 W/m2
02:41 5.9 °C 5.6 °C 1007.0 hPa NNW 6.1 km/h 7.2 km/h 98% 0.0 mm 0 W/m2
02:46 6.0 °C 5.6 °C 1007.0 hPa NNW 6.1 km/h 7.2 km/h 97% 0.0 mm 0 W/m2
02:51 6.0 °C 5.6 °C 1007.0 hPa NNW 5.0 km/h 7.2 km/h 97% 0.0 mm 0 W/m2
02:56 6.0 °C 5.6 °C 1007.0 hPa NNW 5.0 km/h 7.2 km/h 97% 0.0 mm 0 W/m2
03:01 6.0 °C 5.6 °C 1007.0 hPa NW 3.5 km/h 7.2 km/h 97% 0.0 mm 0 W/m2
03:06 6.0 °C 5.6 °C 1007.0 hPa NW 5.0 km/h 7.2 km/h 97% 0.0 mm 0 W/m2
03:11 5.9 °C 5.8 °C 1007.0 hPa NW 5.0 km/h 7.2 km/h 99% 0.0 mm 0 W/m2
03:16 5.9 °C 5.8 °C 1007.0 hPa NNW 5.0 km/h 7.2 km/h 99% 0.0 mm 0 W/m2
03:21 6.0 °C 5.7 °C 1007.0 hPa NNW 5.0 km/h 7.2 km/h 98% 0.0 mm 0 W/m2
03:26 5.9 °C 5.8 °C 1007.0 hPa NNW 3.5 km/h 7.2 km/h 99% 0.0 mm 0 W/m2
03:31 5.8 °C 5.7 °C 1007.0 hPa NNW 5.0 km/h 7.2 km/h 99% 0.0 mm 0 W/m2
03:36 5.7 °C 5.6 °C 1006.7 hPa NW 5.0 km/h 7.2 km/h 99% 0.0 mm 0 W/m2
03:41 5.7 °C 5.6 °C 1006.7 hPa NW 5.0 km/h 8.7 km/h 99% 0.0 mm 0 W/m2
03:46 5.6 °C 5.4 °C 1007.0 hPa NNW 6.1 km/h 8.7 km/h 99% 0.0 mm 0 W/m2
03:51 5.5 °C 5.3 °C 1006.7 hPa NNW 6.1 km/h 7.2 km/h 99% 0.0 mm 0 W/m2
03:56 5.4 °C 5.1 °C 1006.7 hPa NNW 5.0 km/h 8.7 km/h 98% 0.0 mm 0 W/m2
04:01 5.3 °C 5.0 °C 1007.0 hPa NW 6.1 km/h 8.7 km/h 98% 0.0 mm 0 W/m2
04:06 5.3 °C 5.0 °C 1007.0 hPa NW 6.1 km/h 8.7 km/h 98% 0.0 mm 0 W/m2
04:11 5.3 °C 5.0 °C 1007.0 hPa NW 6.1 km/h 8.7 km/h 98% 0.0 mm 0 W/m2
04:16 5.3 °C 5.0 °C 1007.0 hPa NNW 5.0 km/h 8.7 km/h 98% 0.0 mm 0 W/m2
04:21 5.2 °C 4.9 °C 1007.0 hPa NNW 6.1 km/h 8.7 km/h 98% 0.0 mm 0 W/m2
04:26 5.2 °C 4.9 °C 1007.0 hPa NNW 6.1 km/h 9.7 km/h 98% 0.0 mm 0 W/m2
04:31 5.1 °C 4.8 °C 1007.0 hPa NW 5.0 km/h 9.7 km/h 98% 0.0 mm 0 W/m2
04:36 5.1 °C 4.8 °C 1007.0 hPa NNW 3.5 km/h 9.7 km/h 98% 0.0 mm 0 W/m2
04:41 5.0 °C 4.7 °C 1007.0 hPa NNW 5.0 km/h 8.7 km/h 98% 0.0 mm 0 W/m2
04:46 4.9 °C 4.8 °C 1007.0 hPa NNW 5.0 km/h 7.2 km/h 99% 0.0 mm 0 W/m2
04:51 4.9 °C 4.8 °C 1007.0 hPa NNW 6.1 km/h 9.7 km/h 99% 0.0 mm 0 W/m2
04:56 4.8 °C 4.7 °C 1007.0 hPa NNW 5.0 km/h 9.7 km/h 99% 0.0 mm 0 W/m2
05:01 4.7 °C 4.6 °C 1007.0 hPa NNW 5.0 km/h 9.7 km/h 99% 0.0 mm 0 W/m2
05:06 4.7 °C 4.6 °C 1007.3 hPa NNW 6.1 km/h 9.7 km/h 99% 0.0 mm 0 W/m2
05:11 4.7 °C 4.6 °C 1007.0 hPa NNW 6.1 km/h 9.7 km/h 99% 0.0 mm 0 W/m2
05:16 4.7 °C 4.6 °C 1007.0 hPa NNW 6.1 km/h 8.7 km/h 99% 0.0 mm 0 W/m2
05:21 4.6 °C 4.4 °C 1007.0 hPa NNW 5.0 km/h 8.7 km/h 99% 0.0 mm 0 W/m2
05:26 4.5 °C 4.3 °C 1007.3 hPa NNW 5.0 km/h 7.2 km/h 99% 0.0 mm 0 W/m2
05:31 4.5 °C 4.3 °C 1007.0 hPa North 3.5 km/h 7.2 km/h 99% 0.0 mm 0 W/m2
05:36 4.5 °C 4.3 °C 1007.0 hPa North 5.0 km/h 6.1 km/h 99% 0.0 mm 0 W/m2
05:41 4.4 °C 4.3 °C 1007.3 hPa NNW 5.0 km/h 6.1 km/h 99% 0.0 mm 0 W/m2
05:46 4.5 °C 4.3 °C 1007.3 hPa NW 5.0 km/h 8.7 km/h 99% 0.0 mm 0 W/m2
05:51 4.5 °C 4.3 °C 1007.3 hPa NNW 5.0 km/h 8.7 km/h 99% 0.0 mm 0 W/m2
05:56 4.5 °C 4.3 °C 1007.3 hPa NNW 6.1 km/h 9.7 km/h 99% 0.0 mm 0 W/m2
06:01 4.5 °C 4.3 °C 1007.3 hPa NNW 5.0 km/h 11.1 km/h 99% 0.0 mm 0 W/m2
06:06 4.7 °C 4.6 °C 1007.3 hPa NNW 5.0 km/h 11.1 km/h 99% 0.0 mm 0 W/m2
06:11 4.8 °C 4.7 °C 1007.3 hPa NNW 5.0 km/h 11.1 km/h 99% 0.0 mm 0 W/m2
06:16 4.7 °C 4.6 °C 1007.3 hPa NNW 5.0 km/h 11.1 km/h 99% 0.0 mm 0 W/m2
06:21 4.5 °C 4.3 °C 1007.7 hPa NNW 5.0 km/h 9.7 km/h 99% 0.0 mm 0 W/m2
06:26 4.3 °C 4.2 °C 1007.3 hPa NW 6.1 km/h 11.1 km/h 99% 0.0 mm 0 W/m2
06:31 4.3 °C 4.2 °C 1007.7 hPa NNW 6.1 km/h 11.1 km/h 99% 0.0 mm 0 W/m2
06:36 4.2 °C 4.1 °C 1007.7 hPa North 5.0 km/h 9.7 km/h 99% 0.0 mm 0 W/m2
06:41 4.1 °C 3.9 °C 1007.7 hPa NNW 5.0 km/h 8.7 km/h 99% 0.0 mm 0 W/m2
06:46 4.1 °C 3.9 °C 1007.3 hPa NNW 3.5 km/h 7.2 km/h 99% 0.0 mm 0 W/m2
06:51 4.1 °C 3.9 °C 1007.7 hPa NNW 5.0 km/h 8.7 km/h 99% 0.0 mm 0 W/m2
06:56 4.1 °C 3.9 °C 1007.7 hPa NW 5.0 km/h 8.7 km/h 99% 0.0 mm 0 W/m2
07:01 3.9 °C 3.8 °C 1007.7 hPa NW 6.1 km/h 8.7 km/h 99% 0.0 mm 0 W/m2
07:06 3.8 °C 3.7 °C 1008.0 hPa NNW 5.0 km/h 8.7 km/h 99% 0.0 mm 0 W/m2
07:11 3.8 °C 3.7 °C 1007.7 hPa NNW 6.1 km/h 8.7 km/h 99% 0.0 mm 0 W/m2
07:16 3.8 °C 3.7 °C 1008.0 hPa NNW 6.1 km/h 9.7 km/h 99% 0.0 mm 0 W/m2
07:21 3.8 °C 3.7 °C 1008.0 hPa NNW 5.0 km/h 9.7 km/h 99% 0.0 mm 0 W/m2
07:26 3.8 °C 3.7 °C 1008.0 hPa NNW 6.1 km/h 8.7 km/h 99% 0.0 mm 2 W/m2
07:31 3.8 °C 3.7 °C 1008.0 hPa NNW 5.0 km/h 8.7 km/h 99% 0.0 mm 4 W/m2
07:36 3.8 °C 3.7 °C 1008.0 hPa North 3.5 km/h 8.7 km/h 99% 0.0 mm 7 W/m2
07:42 4.1 °C 3.9 °C 1008.0 hPa NNW 5.0 km/h 9.7 km/h 99% 0.0 mm 36 W/m2
07:47 4.4 °C 4.3 °C 1008.0 hPa NNW 6.1 km/h 9.7 km/h 99% 0.0 mm 47 W/m2
07:52 4.5 °C 4.3 °C 1008.0 hPa NW 7.2 km/h 9.7 km/h 99% 0.0 mm 61 W/m2
07:57 4.8 °C 4.7 °C 1008.4 hPa NNW 5.0 km/h 11.1 km/h 99% 0.0 mm 73 W/m2
08:02 5.0 °C 4.7 °C 1008.0 hPa NNW 8.7 km/h 12.2 km/h 98% 0.0 mm 82 W/m2
08:07 5.2 °C 4.9 °C 1008.0 hPa NNW 8.7 km/h 12.2 km/h 98% 0.0 mm 91 W/m2
08:12 5.5 °C 5.1 °C 1008.0 hPa North 9.7 km/h 14.8 km/h 97% 0.0 mm 101 W/m2
08:17 5.8 °C 5.4 °C 1008.4 hPa North 8.7 km/h 14.8 km/h 97% 0.0 mm 111 W/m2
08:22 6.1 °C 5.3 °C 1008.0 hPa NNW 8.7 km/h 13.4 km/h 95% 0.0 mm 120 W/m2
08:27 6.2 °C 5.2 °C 1008.4 hPa NW 8.7 km/h 14.8 km/h 93% 0.0 mm 128 W/m2
08:32 6.3 °C 5.1 °C 1008.4 hPa NNW 6.1 km/h 14.8 km/h 92% 0.0 mm 137 W/m2
08:37 6.6 °C 5.2 °C 1008.4 hPa NNW 8.7 km/h 13.4 km/h 91% 0.0 mm 148 W/m2
08:42 6.8 °C 5.3 °C 1008.7 hPa NNW 9.7 km/h 14.8 km/h 90% 0.0 mm 155 W/m2
08:47 6.9 °C 5.2 °C 1008.4 hPa North 9.7 km/h 14.8 km/h 89% 0.0 mm 161 W/m2
08:52 6.9 °C 5.1 °C 1008.7 hPa North 13.4 km/h 17.2 km/h 88% 0.0 mm 171 W/m2
08:58 7.1 °C 4.9 °C 1008.7 hPa North 7.2 km/h 17.2 km/h 86% 0.0 mm 182 W/m2
09:03 7.4 °C 5.2 °C 1008.7 hPa NNW 7.2 km/h 17.2 km/h 86% 0.0 mm 191 W/m2
09:08 7.7 °C 5.3 °C 1008.7 hPa North 7.2 km/h 14.8 km/h 85% 0.0 mm 199 W/m2
09:13 8.1 °C 5.6 °C 1009.0 hPa North 5.0 km/h 14.8 km/h 84% 0.0 mm 207 W/m2
09:18 8.4 °C 5.5 °C 1009.0 hPa North 6.1 km/h 13.4 km/h 82% 0.0 mm 215 W/m2
09:23 8.4 °C 5.2 °C 1009.0 hPa NNW 8.7 km/h 14.8 km/h 80% 0.0 mm 221 W/m2
09:28 8.5 °C 5.2 °C 1009.0 hPa NNW 7.2 km/h 14.8 km/h 80% 0.0 mm 226 W/m2
09:33 9.1 °C 5.7 °C 1009.0 hPa North 8.7 km/h 13.4 km/h 79% 0.0 mm 227 W/m2
09:38 9.3 °C 5.5 °C 1009.4 hPa North 7.2 km/h 14.8 km/h 77% 0.0 mm 153 W/m2
09:43 9.5 °C 5.5 °C 1009.4 hPa North 8.7 km/h 14.8 km/h 76% 0.0 mm 89 W/m2
09:48 9.5 °C 5.3 °C 1009.4 hPa North 7.2 km/h 14.8 km/h 75% 0.0 mm 62 W/m2
09:53 9.8 °C 5.6 °C 1009.4 hPa North 7.2 km/h 14.8 km/h 75% 0.0 mm 58 W/m2
09:58 10.0 °C 5.4 °C 1009.4 hPa North 8.7 km/h 14.8 km/h 73% 0.0 mm 55 W/m2
10:03 10.1 °C 5.5 °C 1009.4 hPa North 6.1 km/h 14.8 km/h 73% 0.0 mm 53 W/m2
10:08 10.3 °C 5.5 °C 1009.4 hPa North 9.7 km/h 14.8 km/h 72% 0.0 mm 51 W/m2
10:13 10.4 °C 5.6 °C 1009.4 hPa North 7.2 km/h 14.8 km/h 72% 0.0 mm 50 W/m2
10:18 10.6 °C 5.8 °C 1009.4 hPa North 7.2 km/h 14.8 km/h 72% 0.0 mm 50 W/m2
10:23 10.8 °C 5.8 °C 1009.7 hPa NNW 7.2 km/h 14.8 km/h 71% 0.0 mm 50 W/m2
10:28 10.8 °C 5.6 °C 1009.7 hPa NNW 9.7 km/h 15.8 km/h 70% 0.0 mm 49 W/m2
10:33 10.8 °C 5.8 °C 1009.7 hPa NNW 11.1 km/h 17.2 km/h 71% 0.0 mm 49 W/m2
10:38 10.8 °C 5.8 °C 1009.4 hPa NNW 6.1 km/h 17.2 km/h 71% 0.0 mm 50 W/m2
10:43 11.2 °C 5.7 °C 1009.7 hPa NNW 3.5 km/h 14.8 km/h 69% 0.0 mm 51 W/m2
10:48 11.5 °C 6.0 °C 1009.7 hPa North 7.2 km/h 13.4 km/h 69% 0.0 mm 53 W/m2
10:53 11.7 °C 6.2 °C 1009.7 hPa NNE 8.7 km/h 13.4 km/h 69% 0.0 mm 73 W/m2
10:58 11.9 °C 6.4 °C 1009.7 hPa North 5.0 km/h 13.4 km/h 69% 0.0 mm 129 W/m2
11:03 11.9 °C 6.4 °C 1009.7 hPa NNW 6.1 km/h 12.2 km/h 69% 0.0 mm 172 W/m2
11:08 12.0 °C 6.1 °C 1009.7 hPa NNW 7.2 km/h 11.1 km/h 67% 0.0 mm 211 W/m2
11:27 12.7 °C 6.1 °C 1009.4 hPa NNW 8.7 km/h 11.1 km/h 64% 0.0 mm 233 W/m2
11:32 13.1 °C 6.7 °C 1009.4 hPa NNW 3.5 km/h 11.1 km/h 65% 0.0 mm 232 W/m2
11:37 13.5 °C 6.4 °C 1009.4 hPa North 1.1 km/h 11.1 km/h 62% 0.0 mm 226 W/m2
11:42 14.1 °C 5.9 °C 1009.4 hPa North 5.0 km/h 7.2 km/h 58% 0.0 mm 216 W/m2
11:47 14.5 °C 6.1 °C 1009.4 hPa NNE 6.1 km/h 8.7 km/h 57% 0.0 mm 213 W/m2
11:52 14.5 °C 5.8 °C 1009.4 hPa NNE 5.0 km/h 8.7 km/h 56% 0.0 mm 202 W/m2
11:57 14.6 °C 5.7 °C 1009.4 hPa North 5.0 km/h 9.7 km/h 55% 0.0 mm 194 W/m2
12:02 14.8 °C 5.6 °C 1009.0 hPa NW 2.6 km/h 9.7 km/h 54% 0.0 mm 179 W/m2
12:07 15.2 °C 5.9 °C 1009.0 hPa NNW 2.6 km/h 8.7 km/h 54% 0.0 mm 166 W/m2
12:12 15.4 °C 5.9 °C 1009.0 hPa NNE 5.0 km/h 7.2 km/h 53% 0.0 mm 153 W/m2
12:17 15.8 °C 6.2 °C 1009.0 hPa NNE 2.6 km/h 7.2 km/h 53% 0.0 mm 134 W/m2
12:22 16.1 °C 5.7 °C 1008.7 hPa NNE 3.5 km/h 8.7 km/h 50% 0.0 mm 115 W/m2
12:27 16.2 °C 6.1 °C 1008.7 hPa North 5.0 km/h 8.7 km/h 51% 0.0 mm 102 W/m2
12:32 16.4 °C 5.4 °C 1008.7 hPa NNE 3.5 km/h 8.7 km/h 48% 0.0 mm 83 W/m2
12:37 16.2 °C 5.2 °C 1008.4 hPa NNE 5.0 km/h 12.2 km/h 48% 0.0 mm 74 W/m2
12:42 16.6 °C 6.2 °C 1008.4 hPa NNE 3.5 km/h 12.2 km/h 50% 0.0 mm 69 W/m2
12:47 16.6 °C 5.2 °C 1008.4 hPa NE 3.5 km/h 7.2 km/h 47% 0.0 mm 68 W/m2
12:52 16.9 °C 5.5 °C 1008.4 hPa Calm   7.2 km/h 47% 0.0 mm 67 W/m2
12:57 17.7 °C 5.6 °C 1008.4 hPa West 5.0 km/h 7.2 km/h 45% 0.0 mm 67 W/m2
13:02 16.6 °C 4.9 °C 1008.4 hPa SSW 5.0 km/h 9.7 km/h 46% 0.0 mm 65 W/m2
13:07 16.3 °C 5.0 °C 1008.4 hPa SW 1.1 km/h 9.7 km/h 47% 0.0 mm 59 W/m2
13:12 17.3 °C 5.9 °C 1008.4 hPa WSW 3.5 km/h 7.2 km/h 47% 0.0 mm 56 W/m2
13:17 17.9 °C 5.8 °C 1008.4 hPa SSW 2.6 km/h 6.1 km/h 45% 0.0 mm 56 W/m2
13:22 17.9 °C 5.5 °C 1008.4 hPa SSW 2.6 km/h 6.1 km/h 44% 0.0 mm 55 W/m2
13:27 17.9 °C 5.5 °C 1008.4 hPa SSW 3.5 km/h 11.1 km/h 44% 0.0 mm 54 W/m2
13:32 17.5 °C 5.1 °C 1008.4 hPa NW 3.5 km/h 11.1 km/h 44% 0.0 mm 54 W/m2
13:37 17.9 °C 5.5 °C 1008.0 hPa North 6.1 km/h 9.7 km/h 44% 0.0 mm 55 W/m2
13:42 16.9 °C 4.9 °C 1008.0 hPa NE 2.6 km/h 11.1 km/h 45% 0.0 mm 55 W/m2
13:47 17.5 °C 5.1 °C 1008.0 hPa Calm   11.1 km/h 44% 0.0 mm 56 W/m2
13:52 17.3 °C 4.3 °C 1008.0 hPa South 5.0 km/h 9.7 km/h 42% 0.0 mm 57 W/m2
13:57 17.5 °C 4.4 °C 1008.0 hPa SSW 6.1 km/h 9.7 km/h 42% 0.0 mm 58 W/m2
14:02 18.0 °C 4.6 °C 1008.0 hPa South 3.5 km/h 9.7 km/h 41% 0.0 mm 59 W/m2
14:07 18.0 °C 4.2 °C 1008.0 hPa SSE 5.0 km/h 9.7 km/h 40% 0.0 mm 61 W/m2
14:12 17.5 °C 3.8 °C 1008.0 hPa SE 3.5 km/h 8.7 km/h 40% 0.0 mm 63 W/m2
14:17 17.4 °C 4.0 °C 1008.0 hPa ESE 5.0 km/h 8.7 km/h 41% 0.0 mm 64 W/m2
14:22 17.7 °C 4.3 °C 1008.0 hPa SE 5.0 km/h 6.1 km/h 41% 0.0 mm 70 W/m2
14:27 17.4 °C 4.0 °C 1008.0 hPa SSE 3.5 km/h 8.7 km/h 41% 0.0 mm 97 W/m2
14:32 17.7 °C 4.3 °C 1008.0 hPa South 1.1 km/h 8.7 km/h 41% 0.0 mm 144 W/m2
14:37 18.4 °C 4.9 °C 1007.7 hPa SSE 2.6 km/h 7.2 km/h 41% 0.0 mm 178 W/m2
14:42 18.6 °C 5.1 °C 1008.0 hPa South 3.5 km/h 6.1 km/h 41% 0.0 mm 180 W/m2
14:47 18.1 °C 4.7 °C 1008.0 hPa SSW 5.0 km/h 6.1 km/h 41% 0.0 mm 179 W/m2
14:52 17.7 °C 4.6 °C 1008.0 hPa South 6.1 km/h 8.7 km/h 42% 0.0 mm 169 W/m2
14:58 17.7 °C 4.6 °C 1008.0 hPa SE 3.5 km/h 8.7 km/h 42% 0.0 mm 166 W/m2
15:03 17.6 °C 4.6 °C 1008.0 hPa ESE 2.6 km/h 7.2 km/h 42% 0.0 mm 159 W/m2
15:08 17.9 °C 5.2 °C 1008.0 hPa ESE 3.5 km/h 7.2 km/h 43% 0.0 mm 151 W/m2
15:13 17.6 °C 4.9 °C 1008.0 hPa ESE 2.6 km/h 6.1 km/h 43% 0.0 mm 145 W/m2
15:18 17.9 °C 5.2 °C 1008.0 hPa ESE 2.6 km/h 6.1 km/h 43% 0.0 mm 139 W/m2
15:23 18.0 °C 5.9 °C 1007.7 hPa East 2.6 km/h 6.1 km/h 45% 0.0 mm 132 W/m2
15:28 17.6 °C 5.2 °C 1007.7 hPa ENE 5.0 km/h 7.2 km/h 44% 0.0 mm 126 W/m2
15:33 17.8 °C 5.4 °C 1008.0 hPa NE 3.5 km/h 7.2 km/h 44% 0.0 mm 120 W/m2
15:38 17.6 °C 4.9 °C 1008.0 hPa NE 3.5 km/h 7.2 km/h 43% 0.0 mm 113 W/m2
15:43 18.1 °C 6.0 °C 1007.7 hPa NE 2.6 km/h 7.2 km/h 45% 0.0 mm 107 W/m2
15:48 18.4 °C 5.3 °C 1007.7 hPa NE 3.5 km/h 6.1 km/h 42% 0.0 mm 101 W/m2
15:53 18.2 °C 6.1 °C 1007.7 hPa NE 6.1 km/h 11.1 km/h 45% 0.0 mm 93 W/m2
15:58 17.6 °C 5.2 °C 1008.0 hPa NE 6.1 km/h 11.1 km/h 44% 0.0 mm 82 W/m2
16:03 16.9 °C 5.2 °C 1008.0 hPa NE 5.0 km/h 11.1 km/h 46% 0.0 mm 68 W/m2
16:08 16.7 °C 5.7 °C 1007.7 hPa ENE 3.5 km/h 8.7 km/h 48% 0.0 mm 58 W/m2
16:13 17.1 °C 5.4 °C 1008.0 hPa ENE 2.6 km/h 8.7 km/h 46% 0.0 mm 52 W/m2
16:18 17.2 °C 5.5 °C 1008.0 hPa NE 3.5 km/h 6.1 km/h 46% 0.0 mm 46 W/m2
16:23 17.2 °C 5.5 °C 1008.0 hPa NE 5.0 km/h 7.2 km/h 46% 0.0 mm 41 W/m2
16:28 17.0 °C 5.3 °C 1008.0 hPa NE 2.6 km/h 7.2 km/h 46% 0.0 mm 36 W/m2
16:33 16.9 °C 5.8 °C 1008.0 hPa NE 2.6 km/h 7.2 km/h 48% 0.0 mm 32 W/m2
16:38 16.7 °C 5.7 °C 1008.0 hPa ENE 2.6 km/h 6.1 km/h 48% 0.0 mm 29 W/m2
16:43 16.4 °C 5.7 °C 1008.0 hPa NE 3.5 km/h 6.1 km/h 49% 0.0 mm 28 W/m2
16:48 16.1 °C 5.9 °C 1008.0 hPa NE 2.6 km/h 6.1 km/h 51% 0.0 mm 25 W/m2
16:53 15.7 °C 6.2 °C 1008.0 hPa NE 3.5 km/h 6.1 km/h 53% 0.0 mm 20 W/m2
16:59 15.4 °C 6.2 °C 1008.0 hPa NE 1.1 km/h 5.0 km/h 54% 0.0 mm 13 W/m2
17:04 15.1 °C 6.1 °C 1008.0 hPa NE 1.1 km/h 5.0 km/h 55% 0.0 mm 7 W/m2
17:09 14.1 °C 5.7 °C 1008.0 hPa NE 1.1 km/h 3.5 km/h 57% 0.0 mm 3 W/m2
17:14 13.3 °C 5.9 °C 1008.0 hPa NE 1.1 km/h 3.5 km/h 61% 0.0 mm 0 W/m2
17:19 12.7 °C 5.8 °C 1008.0 hPa NNE 1.1 km/h 3.5 km/h 63% 0.0 mm 0 W/m2
17:24 12.3 °C 5.7 °C 1008.0 hPa North 1.1 km/h 3.5 km/h 64% 0.0 mm 0 W/m2
17:29 11.9 °C 6.2 °C 1008.4 hPa North 2.6 km/h 3.5 km/h 68% 0.0 mm 0 W/m2
17:34 11.8 °C 6.3 °C 1008.4 hPa North 1.1 km/h 3.5 km/h 69% 0.0 mm 0 W/m2
17:39 11.5 °C 6.2 °C 1008.4 hPa North 2.6 km/h 3.5 km/h 70% 0.0 mm 0 W/m2
17:44 11.0 °C 6.2 °C 1008.4 hPa North 2.6 km/h 5.0 km/h 72% 0.0 mm 0 W/m2
17:49 10.6 °C 6.2 °C 1008.4 hPa NNW 1.1 km/h 5.0 km/h 74% 0.0 mm 0 W/m2
17:54 10.3 °C 6.1 °C 1008.4 hPa NNW 2.6 km/h 5.0 km/h 75% 0.0 mm 0 W/m2
17:59 10.1 °C 6.1 °C 1008.4 hPa North 2.6 km/h 5.0 km/h 76% 0.0 mm 0 W/m2
18:04 9.9 °C 6.2 °C 1008.4 hPa North 2.6 km/h 5.0 km/h 78% 0.0 mm 0 W/m2
18:09 9.6 °C 5.9 °C 1008.4 hPa North 2.6 km/h 3.5 km/h 78% 0.0 mm 0 W/m2
18:14 9.3 °C 6.1 °C 1008.4 hPa North 2.6 km/h 5.0 km/h 80% 0.0 mm 0 W/m2
18:19 9.2 °C 6.1 °C 1008.4 hPa North 3.5 km/h 5.0 km/h 81% 0.0 mm 0 W/m2
18:24 9.2 °C 6.4 °C 1008.4 hPa North 3.5 km/h 6.1 km/h 83% 0.0 mm 0 W/m2
18:29 9.2 °C 6.7 °C 1008.4 hPa North 2.6 km/h 6.1 km/h 84% 0.0 mm 0 W/m2
18:34 9.2 °C 6.7 °C 1008.7 hPa North 3.5 km/h 6.1 km/h 84% 0.0 mm 0 W/m2
18:39 9.3 °C 6.7 °C 1008.4 hPa North 2.6 km/h 6.1 km/h 84% 0.0 mm 0 W/m2
18:44 9.3 °C 6.7 °C 1008.7 hPa North 3.5 km/h 6.1 km/h 84% 0.0 mm 0 W/m2
18:49 9.3 °C 6.7 °C 1008.4 hPa North 2.6 km/h 6.1 km/h 84% 0.0 mm 0 W/m2
18:54 9.2 °C 6.7 °C 1008.4 hPa North 3.5 km/h 7.2 km/h 84% 0.0 mm 0 W/m2
18:59 9.2 °C 6.7 °C 1008.7 hPa North 6.1 km/h 9.7 km/h 84% 0.0 mm 0 W/m2
19:04 9.3 °C 6.7 °C 1008.4 hPa NNW 7.2 km/h 11.1 km/h 84% 0.0 mm 0 W/m2
19:10 9.3 °C 6.7 °C 1008.7 hPa NW 6.1 km/h 12.2 km/h 84% 0.0 mm 0 W/m2
19:15 9.2 °C 6.7 °C 1008.7 hPa NW 8.7 km/h 12.2 km/h 84% 0.0 mm 0 W/m2
19:20 9.1 °C 6.6 °C 1008.7 hPa NW 5.0 km/h 11.1 km/h 84% 0.0 mm 0 W/m2
19:26 8.8 °C 6.4 °C 1008.7 hPa NNW 5.0 km/h 8.7 km/h 85% 0.0 mm 0 W/m2
19:31 8.8 °C 6.4 °C 1008.7 hPa NNW 6.1 km/h 9.7 km/h 85% 0.0 mm 0 W/m2
19:36 8.8 °C 6.6 °C 1008.4 hPa NNW 6.1 km/h 9.7 km/h 86% 0.0 mm 0 W/m2
19:41 8.7 °C 6.5 °C 1008.7 hPa NW 5.0 km/h 9.7 km/h 86% 0.0 mm 0 W/m2
19:46 8.5 °C 6.3 °C 1008.7 hPa NW 5.0 km/h 7.2 km/h 86% 0.0 mm 0 W/m2
19:52 8.3 °C 6.1 °C 1008.7 hPa NNW 6.1 km/h 8.7 km/h 86% 0.0 mm 0 W/m2
19:57 8.2 °C 6.0 °C 1008.4 hPa NNW 6.1 km/h 9.7 km/h 86% 0.0 mm 0 W/m2
20:02 8.1 °C 6.1 °C 1008.7 hPa NW 6.1 km/h 9.7 km/h 87% 0.0 mm 0 W/m2
20:07 7.9 °C 5.9 °C 1008.7 hPa NW 5.0 km/h 8.7 km/h 87% 0.0 mm 0 W/m2
20:12 7.8 °C 5.8 °C 1008.7 hPa NW 6.1 km/h 11.1 km/h 87% 0.0 mm 0 W/m2
20:17 7.8 °C 5.9 °C 1008.7 hPa NW 6.1 km/h 11.1 km/h 88% 0.0 mm 0 W/m2
20:22 7.7 °C 5.8 °C 1008.4 hPa NW 5.0 km/h 9.7 km/h 88% 0.0 mm 0 W/m2
20:27 7.6 °C 5.7 °C 1008.7 hPa NNW 6.1 km/h 8.7 km/h 88% 0.0 mm 0 W/m2
20:32 7.5 °C 5.7 °C 1008.7 hPa NNW 2.6 km/h 8.7 km/h 88% 0.0 mm 0 W/m2
20:37 7.3 °C 5.4 °C 1008.7 hPa NNW 5.0 km/h 8.7 km/h 88% 0.0 mm 0 W/m2
20:42 7.2 °C 5.5 °C 1008.7 hPa NNW 3.5 km/h 6.1 km/h 89% 0.0 mm 0 W/m2
20:47 7.3 °C 5.6 °C 1008.7 hPa NNW 3.5 km/h 7.2 km/h 89% 0.0 mm 0 W/m2
20:52 7.4 °C 5.7 °C 1008.7 hPa NNW 2.6 km/h 7.2 km/h 89% 0.0 mm 0 W/m2
20:57 7.4 °C 5.7 °C 1008.7 hPa NNW 5.0 km/h 7.2 km/h 89% 0.0 mm 0 W/m2
21:02 7.4 °C 5.7 °C 1008.7 hPa NW 3.5 km/h 7.2 km/h 89% 0.0 mm 0 W/m2
21:07 7.3 °C 5.4 °C 1008.7 hPa NW 1.1 km/h 7.2 km/h 88% 0.0 mm 0 W/m2
21:12 7.1 °C 5.2 °C 1009.0 hPa NW 3.5 km/h 5.0 km/h 88% 0.0 mm 0 W/m2
21:17 6.9 °C 5.2 °C 1008.7 hPa NW 3.5 km/h 5.0 km/h 89% 0.0 mm 0 W/m2
21:22 6.7 °C 5.0 °C 1008.7 hPa NW 3.5 km/h 6.1 km/h 89% 0.0 mm 0 W/m2
21:27 6.6 °C 4.9 °C 1008.7 hPa NW 5.0 km/h 7.2 km/h 89% 0.0 mm 0 W/m2
21:32 6.7 °C 5.2 °C 1009.0 hPa North 6.1 km/h 9.7 km/h 90% 0.0 mm 0 W/m2
21:37 7.0 °C 5.5 °C 1008.7 hPa North 6.1 km/h 11.1 km/h 90% 0.0 mm 0 W/m2
21:42 7.1 °C 5.6 °C 1008.7 hPa North 6.1 km/h 11.1 km/h 90% 0.0 mm 0 W/m2
21:47 7.1 °C 5.4 °C 1008.7 hPa NNW 5.0 km/h 11.1 km/h 89% 0.0 mm 0 W/m2
21:52 7.2 °C 5.5 °C 1008.7 hPa North 3.5 km/h 11.1 km/h 89% 0.0 mm 0 W/m2
21:57 7.1 °C 5.2 °C 1008.7 hPa North 2.6 km/h 11.1 km/h 88% 0.0 mm 0 W/m2
22:02 6.9 °C 5.2 °C 1009.0 hPa North 3.5 km/h 8.7 km/h 89% 0.0 mm 0 W/m2
22:07 6.8 °C 5.1 °C 1008.7 hPa North 2.6 km/h 7.2 km/h 89% 0.0 mm 0 W/m2
22:12 6.7 °C 5.0 °C 1008.7 hPa North 3.5 km/h 7.2 km/h 89% 0.0 mm 0 W/m2
22:17 6.7 °C 5.0 °C 1008.7 hPa North 5.0 km/h 7.2 km/h 89% 0.0 mm 0 W/m2
22:22 6.7 °C 5.0 °C 1008.7 hPa North 5.0 km/h 8.7 km/h 89% 0.0 mm 0 W/m2
22:27 6.8 °C 5.1 °C 1008.7 hPa NNW 6.1 km/h 9.7 km/h 89% 0.0 mm 0 W/m2
22:32 6.8 °C 5.1 °C 1008.7 hPa NNW 5.0 km/h 13.4 km/h 89% 0.0 mm 0 W/m2
22:37 6.8 °C 5.1 °C 1008.7 hPa NNW 3.5 km/h 13.4 km/h 89% 0.0 mm 0 W/m2
22:42 6.6 °C 4.9 °C 1008.7 hPa NNW 5.0 km/h 9.7 km/h 89% 0.0 mm 0 W/m2
22:47 6.5 °C 4.8 °C 1008.7 hPa North 6.1 km/h 8.7 km/h 89% 0.0 mm 0 W/m2
22:52 6.3 °C 4.6 °C 1008.7 hPa North 7.2 km/h 11.1 km/h 89% 0.0 mm 0 W/m2
22:57 6.3 °C 4.8 °C 1008.7 hPa NNW 9.7 km/h 14.8 km/h 90% 0.0 mm 0 W/m2
23:02 6.3 °C 4.8 °C 1008.7 hPa NW 7.2 km/h 14.8 km/h 90% 0.0 mm 0 W/m2
23:18 6.0 °C 4.7 °C 1008.7 hPa NNW 7.2 km/h 13.4 km/h 91% 0.0 mm 0 W/m2
23:23 6.0 °C 4.7 °C 1008.7 hPa NNW 7.2 km/h 14.8 km/h 91% 0.0 mm 0 W/m2
23:28 6.0 °C 4.7 °C 1008.7 hPa NNW 8.7 km/h 14.8 km/h 91% 0.0 mm 0 W/m2
23:33 6.1 °C 4.7 °C 1008.7 hPa NNW 9.7 km/h 13.4 km/h 91% 0.0 mm 0 W/m2
23:38 6.1 °C 4.7 °C 1008.4 hPa NNW 9.7 km/h 14.8 km/h 91% 0.0 mm 0 W/m2
23:43 6.1 °C 4.7 °C 1008.4 hPa NNW 6.1 km/h 14.8 km/h 91% 0.0 mm 0 W/m2
23:48 6.0 °C 4.7 °C 1008.4 hPa NNW 12.2 km/h 15.8 km/h 91% 0.0 mm 0 W/m2
23:53 5.9 °C 4.7 °C 1008.7 hPa NNW 9.7 km/h 15.8 km/h 92% 0.0 mm 0 W/m2
23:58 5.9 °C 4.7 °C 1008.7 hPa NNW 7.2 km/h 13.4 km/h 92% 0.0 mm 0 W/m2
Northern Hawkes Bay. New Zealand Historic Data
Compliments of Weather Underground - 2 mb